createdAt,value
2017-11-08T06:34:28.465Z,32.57
2017-11-08T06:37:00.361Z,33.07
2017-11-08T06:39:32.996Z,31.30
2017-11-08T06:42:04.904Z,34.33
2017-11-08T06:44:37.550Z,33.07
2017-11-08T06:47:09.432Z,32.40
2017-11-08T06:49:42.073Z,31.83
2017-11-08T06:52:14.092Z,34.03
2017-11-08T06:54:46.724Z,33.90
2017-11-08T06:57:18.624Z,35.17
2017-11-08T06:59:51.278Z,33.37
2017-11-08T07:02:23.187Z,32.27
2017-11-08T07:04:55.055Z,26.87
2017-11-08T07:07:26.940Z,33.07
2017-11-08T07:09:58.924Z,33.60
2017-11-08T07:12:30.859Z,32.03
2017-11-08T07:15:02.728Z,29.97
2017-11-08T07:17:34.618Z,31.10
2017-11-08T07:20:07.248Z,28.60
2017-11-08T07:22:39.143Z,31.57
2017-11-08T07:25:11.022Z,28.73
2017-11-08T07:27:43.716Z,30.90
2017-11-08T07:30:15.592Z,26.77
2017-11-08T07:32:47.736Z,24.93
2017-11-08T07:35:19.615Z,27.20
2017-11-08T07:37:51.504Z,22.57
2017-11-08T07:40:23.377Z,21.20
2017-11-08T07:42:55.281Z,24.43
2017-11-08T07:45:27.237Z,24.53
2017-11-08T07:47:59.901Z,26.27
2017-11-08T07:50:32.536Z,24.23
2017-11-08T07:53:04.443Z,32.70
2017-11-08T07:55:37.083Z,30.77
2017-11-08T07:58:09.017Z,33.33
2017-11-08T08:00:40.889Z,31.53
2017-11-08T08:03:12.796Z,23.27
2017-11-08T08:05:45.448Z,29.73
2017-11-08T08:08:17.344Z,34.63
2017-11-08T08:10:49.995Z,30.60
2017-11-08T08:13:21.886Z,31.10
2017-11-08T08:15:54.552Z,30.23
2017-11-08T08:18:27.217Z,33.97
2017-11-08T08:20:59.101Z,36.10
2017-11-08T08:23:31.764Z,37.80
2017-11-08T08:26:04.408Z,31.40
2017-11-08T08:28:36.321Z,35.53
2017-11-08T08:31:08.963Z,34.73
2017-11-08T08:33:40.876Z,32.13
2017-11-08T08:36:12.743Z,31.00
2017-11-08T08:38:44.652Z,26.87
2017-11-08T08:41:16.532Z,30.37
2017-11-08T08:43:49.196Z,33.87
2017-11-08T08:46:21.076Z,34.00
2017-11-08T08:48:53.764Z,35.60
2017-11-08T08:51:25.645Z,32.83
2017-11-08T08:53:57.563Z,32.33
2017-11-08T08:56:30.209Z,28.87
2017-11-08T08:59:02.133Z,34.70
2017-11-08T09:01:34.030Z,35.73
2017-11-08T09:04:05.954Z,36.13
2017-11-08T09:06:37.851Z,35.93
2017-11-08T09:09:09.748Z,34.53
2017-11-08T09:11:42.393Z,35.60
2017-11-08T09:14:14.286Z,33.77
2017-11-08T09:16:46.935Z,34.67
2017-11-08T09:19:18.843Z,34.50
2017-11-08T09:21:50.729Z,33.33
2017-11-08T09:24:22.638Z,33.57
2017-11-08T09:26:54.508Z,33.97
2017-11-08T09:29:27.176Z,32.17
2017-11-08T09:31:59.049Z,34.77
2017-11-08T09:34:31.704Z,34.70
2017-11-08T09:37:03.581Z,33.87
2017-11-08T09:39:36.265Z,34.63
2017-11-08T09:42:08.937Z,31.53
2017-11-08T09:44:41.592Z,35.83
2017-11-08T09:47:13.477Z,32.03
2017-11-08T09:49:46.164Z,30.30
2017-11-08T09:52:18.813Z,30.60
2017-11-08T09:54:50.724Z,34.70
2017-11-08T09:57:22.601Z,35.90
2017-11-08T09:59:54.500Z,33.67
2017-11-08T10:02:26.388Z,33.43
2017-11-08T10:04:59.040Z,35.47
2017-11-08T10:07:30.936Z,35.47
2017-11-08T10:10:02.865Z,33.43
2017-11-08T10:12:34.753Z,36.07
2017-11-08T10:15:07.403Z,33.33
2017-11-08T10:17:39.300Z,32.87
2017-11-08T10:20:11.233Z,35.10
2017-11-08T10:22:43.873Z,32.50
2017-11-08T10:25:15.799Z,33.67
2017-11-08T10:27:47.669Z,34.67
2017-11-08T10:30:19.568Z,34.73
2017-11-08T10:32:51.448Z,31.87
2017-11-08T10:35:23.370Z,34.97
2017-11-08T10:37:55.252Z,36.90
2017-11-08T10:40:27.255Z,36.57
2017-11-08T10:42:59.896Z,37.53
2017-11-08T10:45:31.757Z,40.43
2017-11-08T10:48:03.646Z,41.07
2017-11-08T10:50:35.548Z,43.70
2017-11-08T10:53:07.421Z,40.27
2017-11-08T10:55:40.137Z,40.13
2017-11-08T10:58:12.007Z,42.27
2017-11-08T11:00:43.942Z,45.40
2017-11-08T11:03:15.823Z,40.33
2017-11-08T11:05:47.734Z,43.23
2017-11-08T11:08:19.610Z,46.50
2017-11-08T11:10:52.285Z,43.40
2017-11-08T11:13:24.940Z,41.77
2017-11-08T11:15:56.848Z,42.37
2017-11-08T11:18:28.725Z,47.23
2017-11-08T11:21:00.666Z,45.57
2017-11-08T11:23:32.546Z,47.47
2017-11-08T11:26:04.449Z,47.97
2017-11-08T11:28:36.324Z,46.60
2017-11-08T11:31:09.009Z,49.87
2017-11-08T11:33:41.665Z,48.73
2017-11-08T11:36:13.874Z,43.53
2017-11-08T11:38:45.758Z,47.30
2017-11-08T11:41:17.679Z,47.90
2017-11-08T11:43:50.333Z,47.47
2017-11-08T11:46:22.241Z,47.23
2017-11-08T11:48:54.108Z,38.73
2017-11-08T11:51:26.025Z,41.27
2017-11-08T11:53:57.904Z,52.07
2017-11-08T11:56:30.570Z,49.57
2017-11-08T11:59:02.455Z,49.67
2017-11-08T12:01:35.162Z,51.30
2017-11-08T12:04:07.049Z,48.83
2017-11-08T12:06:39.475Z,49.03
2017-11-08T12:09:11.376Z,49.50
2017-11-08T12:11:43.291Z,46.53
2017-11-08T12:14:15.952Z,49.20
2017-11-08T12:16:49.479Z,46.83
2017-11-08T12:19:21.365Z,48.20
2017-11-08T12:21:53.267Z,45.20
2017-11-08T12:24:25.150Z,46.80
2017-11-08T12:26:57.832Z,45.57
2017-11-08T12:29:29.727Z,50.47
2017-11-08T12:32:01.638Z,48.40
2017-11-08T12:34:35.113Z,50.37
2017-11-08T12:37:07.017Z,50.60
2017-11-08T12:39:38.910Z,48.47
2017-11-08T12:42:10.806Z,43.47
2017-11-08T12:44:42.731Z,50.30
2017-11-08T12:47:14.629Z,48.03
2017-11-08T12:49:46.507Z,49.23
2017-11-08T12:52:19.177Z,51.60
2017-11-08T12:54:52.087Z,54.00
2017-11-08T12:57:23.998Z,54.40
2017-11-08T12:59:55.883Z,53.63
2017-11-08T13:02:28.561Z,50.00
2017-11-08T13:05:01.208Z,53.37
2017-11-08T13:07:33.130Z,52.53
2017-11-08T13:10:05.059Z,50.53
2017-11-08T13:12:36.962Z,49.87
2017-11-08T13:15:08.845Z,47.97
2017-11-08T13:17:40.745Z,48.90
2017-11-08T13:20:13.405Z,53.77
2017-11-08T13:22:45.309Z,52.47
2017-11-08T13:25:17.201Z,51.13
2017-11-08T13:27:49.110Z,50.37
2017-11-08T13:30:21.773Z,49.93
2017-11-08T13:32:53.662Z,49.63
2017-11-08T13:35:26.315Z,49.43
2017-11-08T13:37:58.221Z,51.43
2017-11-08T13:40:30.105Z,50.40
2017-11-08T13:43:02.016Z,52.03
2017-11-08T13:45:34.665Z,47.83
2017-11-08T13:48:06.578Z,50.80
2017-11-08T13:50:38.457Z,49.53
2017-11-08T13:53:10.384Z,51.93
2017-11-08T13:55:42.262Z,53.83
2017-11-08T13:58:14.169Z,47.90
2017-11-08T14:00:46.084Z,51.83
2017-11-08T14:03:17.982Z,53.53
2017-11-08T14:05:50.632Z,53.07
2017-11-08T14:08:22.545Z,52.00
2017-11-08T14:10:54.452Z,54.93
2017-11-08T14:13:26.468Z,50.60
2017-11-08T14:15:59.137Z,54.57
2017-11-08T14:18:32.796Z,54.17
2017-11-08T14:21:04.674Z,53.97
2017-11-08T14:23:36.582Z,54.33
2017-11-08T14:26:09.238Z,51.53
2017-11-08T14:28:42.061Z,46.77
2017-11-08T14:31:13.950Z,56.43
2017-11-08T14:33:45.870Z,56.00
2017-11-08T14:36:18.518Z,49.60
2017-11-08T14:38:50.523Z,55.43
2017-11-08T14:41:22.402Z,54.90
2017-11-08T14:43:54.330Z,53.90
2017-11-08T14:46:26.973Z,53.33
2017-11-08T14:48:58.884Z,50.70
2017-11-08T14:51:30.762Z,54.80
2017-11-08T14:54:02.689Z,54.80
2017-11-08T14:56:34.584Z,55.37
2017-11-08T14:59:06.493Z,54.10
2017-11-08T15:01:38.370Z,55.70
2017-11-08T15:04:11.039Z,54.80
2017-11-08T15:06:43.949Z,53.50
2017-11-08T15:09:15.860Z,53.33
2017-11-08T15:11:47.740Z,55.37
2017-11-08T15:14:19.639Z,55.53
2017-11-08T15:16:51.531Z,53.17
2017-11-08T15:19:23.437Z,52.47
2017-11-08T15:21:56.089Z,55.57
2017-11-08T15:24:28.022Z,54.33
2017-11-08T15:26:59.929Z,48.60
2017-11-08T15:29:32.617Z,54.63
2017-11-08T15:32:05.259Z,53.03
2017-11-08T15:34:37.178Z,55.13
2017-11-08T15:37:09.057Z,51.93
2017-11-08T15:39:41.021Z,54.17
2017-11-08T15:42:12.898Z,50.40
2017-11-08T15:44:44.808Z,57.47
2017-11-08T15:47:17.469Z,56.27
2017-11-08T15:49:50.134Z,56.63
2017-11-08T15:52:22.036Z,58.20
2017-11-08T15:54:54.005Z,56.43
2017-11-08T15:57:25.929Z,56.97
2017-11-08T15:59:58.639Z,59.00
2017-11-08T16:02:30.516Z,55.40
2017-11-08T16:05:02.433Z,51.27
2017-11-08T16:07:35.085Z,54.70
2017-11-08T16:10:06.990Z,61.30
2017-11-08T16:12:38.873Z,60.10
2017-11-08T16:15:10.807Z,61.37
2017-11-08T16:17:43.462Z,61.90
2017-11-08T16:20:15.377Z,59.80
2017-11-08T16:22:47.258Z,62.90
2017-11-08T16:25:19.172Z,63.53
2017-11-08T16:27:51.049Z,59.63
2017-11-08T16:30:22.957Z,58.20
2017-11-08T16:32:54.831Z,57.77
2017-11-08T16:35:27.509Z,54.03
2017-11-08T16:38:00.177Z,60.97
2017-11-08T16:40:32.300Z,58.63
2017-11-08T16:43:04.190Z,60.47
2017-11-08T16:45:36.873Z,55.37
2017-11-08T16:48:08.754Z,59.47
2017-11-08T16:50:41.437Z,60.73
2017-11-08T16:53:14.092Z,60.97
2017-11-08T16:55:46.005Z,64.57
2017-11-08T16:58:17.886Z,60.53
2017-11-08T17:00:49.796Z,57.70
2017-11-08T17:03:21.673Z,57.63
2017-11-08T17:05:54.360Z,64.97
2017-11-08T17:08:26.258Z,61.73
2017-11-08T17:10:58.150Z,60.23
2017-11-08T17:13:30.037Z,59.20
2017-11-08T17:16:01.925Z,60.40
2017-11-08T17:18:33.806Z,61.07
2017-11-08T17:21:05.778Z,59.53
2017-11-08T17:23:37.669Z,61.20
2017-11-08T17:26:10.367Z,59.27
2017-11-08T17:28:42.242Z,58.53
2017-11-08T17:31:15.954Z,61.40
2017-11-08T17:33:47.849Z,61.93
2017-11-08T17:36:19.752Z,61.40
2017-11-08T17:38:51.637Z,54.10
2017-11-08T17:41:23.550Z,54.43
2017-11-08T17:43:55.433Z,60.30
2017-11-08T17:46:27.356Z,59.17
2017-11-08T17:48:59.229Z,59.57
2017-11-08T17:51:34.001Z,60.03
2017-11-08T17:54:05.873Z,58.40
2017-11-08T17:56:37.761Z,57.33
2017-11-08T17:59:09.695Z,57.00
2017-11-08T18:01:41.637Z,58.63
2017-11-08T18:04:13.537Z,58.10
2017-11-08T18:06:45.465Z,52.40
2017-11-08T18:09:17.408Z,58.07
2017-11-08T18:11:49.311Z,58.37
2017-11-08T18:14:21.192Z,54.27
2017-11-08T18:16:53.105Z,56.07
2017-11-08T18:19:24.986Z,54.23
2017-11-08T18:21:57.000Z,52.73
2017-11-08T18:24:29.635Z,53.23
2017-11-08T18:27:01.969Z,57.13
2017-11-08T18:29:33.865Z,53.80
2017-11-08T18:32:05.753Z,57.80
2017-11-08T18:34:38.399Z,53.37
2017-11-08T18:37:10.310Z,54.10
2017-11-08T18:39:42.195Z,52.70
2017-11-08T18:42:14.097Z,53.67
2017-11-08T18:44:45.974Z,54.43
2017-11-08T18:47:18.678Z,53.87
2017-11-08T18:49:50.627Z,55.17
2017-11-08T18:52:23.293Z,44.10
2017-11-08T18:54:55.989Z,53.10
2017-11-08T18:57:27.925Z,58.03
2017-11-08T18:59:59.807Z,53.80
2017-11-08T19:02:31.774Z,54.80
2017-11-08T19:05:03.674Z,55.53
2017-11-08T19:07:35.606Z,51.77
2017-11-08T19:10:07.481Z,52.13
2017-11-08T19:12:39.369Z,55.00
2017-11-08T19:15:11.281Z,53.30
2017-11-08T19:17:43.334Z,53.37
2017-11-08T19:20:15.245Z,51.87
2017-11-08T19:22:47.176Z,48.97
2017-11-08T19:25:19.194Z,48.43
2017-11-08T19:27:51.893Z,50.30
2017-11-08T19:30:24.534Z,52.13
2017-11-08T19:32:56.445Z,50.70
2017-11-08T19:35:28.512Z,49.70
2017-11-08T19:38:00.413Z,48.20
2017-11-08T19:40:32.310Z,49.07
2017-11-08T19:43:04.978Z,51.10
2017-11-08T19:45:36.854Z,48.33
2017-11-08T19:48:09.617Z,48.90
2017-11-08T19:50:41.502Z,51.20
2017-11-08T19:53:13.402Z,52.97
2017-11-08T19:55:45.274Z,50.83
2017-11-08T19:58:17.265Z,52.60
2017-11-08T20:00:49.952Z,53.73
2017-11-08T20:03:22.633Z,47.93
2017-11-08T20:05:55.268Z,47.13
2017-11-08T20:08:27.189Z,47.47
2017-11-08T20:10:59.188Z,52.53
2017-11-08T20:13:31.085Z,52.17
2017-11-08T20:16:03.737Z,52.43
2017-11-08T20:18:35.645Z,49.63
2017-11-08T20:21:08.395Z,46.43
2017-11-08T20:23:41.081Z,49.57
2017-11-08T20:26:12.969Z,44.87
2017-11-08T20:28:44.872Z,51.30
2017-11-08T20:31:17.562Z,44.33
2017-11-08T20:33:49.596Z,52.97
2017-11-08T20:36:21.471Z,51.00
2017-11-08T20:38:53.356Z,48.87
2017-11-08T20:41:25.228Z,53.57
2017-11-08T20:43:57.151Z,50.90
2017-11-08T20:46:29.055Z,51.00
2017-11-08T20:49:01.735Z,50.57
2017-11-08T20:51:34.378Z,49.67
2017-11-08T20:54:06.274Z,48.23
2017-11-08T20:56:38.929Z,48.10
